Oceania — SQOC — position and weather

sailwx.info

Track history (hours):
 
Tides and Currents Weather Stations Pressure Air Temp Water Temp Dewpoint Dewpoint Depression Visibility Wind Speed Wind Dir Waves Ship Positions

Oceanographic research ship Oceania (Poland)

Detailed information on ship capabilities available from University of Delaware's Ocean Information Center and ARCUS's ALIAS (Arctic Logistics Information and Support) project.

Last reported at 2018-Jun-22 09:32 UTC. Time now 2018-Jun-23 04:45 UTC.
Position N 70°41' E 019°58'.

Length 49 m; beam 9 m.

Type: Sailing vessel. MMSI: 261000142.

Date/timePositionNaut miles runAvg speedWind from/ knotsBaromVisibWave heightAir tempDewpointWater temp
2018-Jun-22 09:32N 70°41' E 019°58'0 9.6
2018-Jun-22 09:30N 70°41' E 019°58'1 2.2
2018-Jun-22 09:01N 70°40' E 019°58'3 5.5
2018-Jun-22 08:30N 70°37' E 019°57'5 9.5
2018-Jun-22 08:01N 70°33' E 019°60'3 5.3
2018-Jun-22 07:30N 70°30' E 020°01'0 0.4
2018-Jun-22 07:00N 70°30' E 020°00'0 0.9
2018-Jun-22 06:30N 70°30' E 020°02'0 0.6
2018-Jun-22 06:00N 70°30' E 020°01'0 0.4
2018-Jun-22 05:30N 70°30' E 020°01'2 4.9
2018-Jun-22 05:00N 70°29' E 020°08'0 0.5
2018-Jun-22 04:30N 70°29' E 020°07'0 0.6
2018-Jun-22 04:00N 70°29' E 020°06'3 5.8
2018-Jun-22 03:30N 70°27' E 020°02'4 8.7
2018-Jun-22 03:00N 70°22' E 020°03'4 8.5
2018-Jun-22 02:30N 70°18' E 020°05'4 9.0
2018-Jun-22 02:00N 70°14' E 020°07'5 9.5
2018-Jun-22 01:30N 70°09' E 020°08'5 9.4
2018-Jun-22 01:00N 70°04' E 020°08'5 9.7
2018-Jun-22 00:29N 70°00' E 020°01'5 9.9
2018-Jun-22 00:00N 69°56' E 019°55'510.0
2018-Jun-21 23:30N 69°51' E 019°48'510.0
2018-Jun-21 23:00N 69°49' E 019°34'510.4
2018-Jun-21 22:30N 69°48' E 019°20'510.2
2018-Jun-21 22:00N 69°46' E 019°07'5 9.5
2018-Jun-21 21:30N 69°41' E 019°02'3 5.7
2018-Jun-21 21:00N 69°39' E 018°58'0 0.0
2018-Jun-21 20:30N 69°39' E 018°58'0 0.0
2018-Jun-21 20:00N 69°39' E 018°58'0 0.0
2018-Jun-21 19:30N 69°39' E 018°58'0 0.0
2018-Jun-21 19:00N 69°39' E 018°58'0 0.0
2018-Jun-21 18:30N 69°39' E 018°58'0 0.0
2018-Jun-21 18:00N 69°39' E 018°58'0 0.0
2018-Jun-21 17:30N 69°39' E 018°58'0 0.0
2018-Jun-21 17:00N 69°39' E 018°58'0 0.0
2018-Jun-21 16:30N 69°39' E 018°58'0 0.0
2018-Jun-21 16:00N 69°39' E 018°58'0 0.0
2018-Jun-21 15:30N 69°39' E 018°58'0 0.0
2018-Jun-21 15:00N 69°39' E 018°58'0 0.0
2018-Jun-21 14:30N 69°39' E 018°58'0 0.0
2018-Jun-21 14:00N 69°39' E 018°58'0 0.0
2018-Jun-21 13:30N 69°39' E 018°58'0 0.0
2018-Jun-21 13:00N 69°39' E 018°58'0 0.0
2018-Jun-21 12:30N 69°39' E 018°58'0 0.0
2018-Jun-21 12:00N 69°39' E 018°58'0 0.0
2018-Jun-21 11:30N 69°39' E 018°58'0 0.0
2018-Jun-21 11:00N 69°39' E 018°58'0 0.0
2018-Jun-21 10:30N 69°39' E 018°58'0 0.0
2018-Jun-21 10:00N 69°39' E 018°58'0 0.0
2018-Jun-21 09:30N 69°39' E 018°58'0 0.0
2018-Jun-21 09:00N 69°39' E 018°58'0 0.0
2018-Jun-21 08:30N 69°39' E 018°58'0 0.0
2018-Jun-21 08:00N 69°39' E 018°58'0 0.0
2018-Jun-21 07:30N 69°39' E 018°58'0 0.0
2018-Jun-21 07:00N 69°39' E 018°58'0 0.0
2018-Jun-21 06:30N 69°39' E 018°58'0 0.0
2018-Jun-21 06:00N 69°39' E 018°58'0 0.0
2018-Jun-21 05:30N 69°39' E 018°58'0 0.0
2018-Jun-21 05:00N 69°39' E 018°58'0 0.0
2018-Jun-21 04:30N 69°39' E 018°58'0 0.0
2018-Jun-21 04:00N 69°39' E 018°58'0 0.0
2018-Jun-21 03:30N 69°39' E 018°58'0 0.0
2018-Jun-21 03:00N 69°39' E 018°58'0 0.0
2018-Jun-21 02:27N 69°39' E 018°58'0 0.0
2018-Jun-21 02:00N 69°39' E 018°58'0 0.0
2018-Jun-21 01:30N 69°39' E 018°58'0 0.0
2018-Jun-21 01:00N 69°39' E 018°58'0 0.0
2018-Jun-21 00:30N 69°39' E 018°58'0 0.0
2018-Jun-21 00:00N 69°39' E 018°58'0 0.0
2018-Jun-20 23:30N 69°39' E 018°58'0 0.0
2018-Jun-20 23:00N 69°39' E 018°58'0 0.0
2018-Jun-20 22:30N 69°39' E 018°58'0 0.0
2018-Jun-20 22:00N 69°39' E 018°58'0 0.0
2018-Jun-20 21:30N 69°39' E 018°58'0 0.0
2018-Jun-20 21:00N 69°39' E 018°58'0 0.0
2018-Jun-20 20:30N 69°39' E 018°58'0 0.0
2018-Jun-20 20:00N 69°39' E 018°58'0 0.0
2018-Jun-20 19:30N 69°39' E 018°58'0 0.0
2018-Jun-20 19:00N 69°39' E 018°58'0 0.0
2018-Jun-20 18:30N 69°39' E 018°58'0 0.0
2018-Jun-20 18:00N 69°39' E 018°58'0 0.0
2018-Jun-20 17:30N 69°39' E 018°58'0 0.0
2018-Jun-20 17:00N 69°39' E 018°58'0 0.0
2018-Jun-20 16:30N 69°39' E 018°58'0 0.0
2018-Jun-20 16:00N 69°39' E 018°58'0 0.0
2018-Jun-20 15:30N 69°39' E 018°58'0 0.0
2018-Jun-20 15:00N 69°39' E 018°58'0 0.0
2018-Jun-20 14:30N 69°39' E 018°58'0 0.0
2018-Jun-20 14:00N 69°39' E 018°58'0 0.0
2018-Jun-20 13:30N 69°39' E 018°58'0 0.0
2018-Jun-20 13:00N 69°39' E 018°58'0 0.0
2018-Jun-20 12:30N 69°39' E 018°58'0 0.0
2018-Jun-20 12:00N 69°39' E 018°58'0 0.0
2018-Jun-20 11:30N 69°39' E 018°58'0 0.0
2018-Jun-20 11:00N 69°39' E 018°58'0 0.0
2018-Jun-20 10:30N 69°39' E 018°58'0 0.0
2018-Jun-20 10:00N 69°39' E 018°58'0 0.0
2018-Jun-20 09:30N 69°39' E 018°58'0 0.0
2018-Jun-20 09:00N 69°39' E 018°58'0 0.0
2018-Jun-20 08:30N 69°39' E 018°58'0 0.0
2018-Jun-20 08:00N 69°39' E 018°58'0 0.0
2018-Jun-20 07:30N 69°39' E 018°58'0 0.0
2018-Jun-20 07:00N 69°39' E 018°58'0 0.0
2018-Jun-20 06:30N 69°39' E 018°58'0 0.0
2018-Jun-20 06:00N 69°39' E 018°58'0 0.0
2018-Jun-20 05:30N 69°39' E 018°58'0 0.0
2018-Jun-20 05:00N 69°39' E 018°58'0 0.0
2018-Jun-20 04:30N 69°39' E 018°58'0 0.0
2018-Jun-20 04:00N 69°39' E 018°58'0 0.0
2018-Jun-20 03:30N 69°39' E 018°58'0 0.0
2018-Jun-20 03:00N 69°39' E 018°58'0 0.0
2018-Jun-20 02:30N 69°39' E 018°58'0 0.0
2018-Jun-20 02:00N 69°39' E 018°58'0 0.0
2018-Jun-20 01:30N 69°39' E 018°58'0 0.0
2018-Jun-20 01:00N 69°39' E 018°58'0 0.0
2018-Jun-20 00:30N 69°39' E 018°58'0 0.0
2018-Jun-20 00:00N 69°39' E 018°58'0 0.0
2018-Jun-19 23:30N 69°39' E 018°58'0 0.0
2018-Jun-19 23:00N 69°39' E 018°58'0 0.0
2018-Jun-19 22:30N 69°39' E 018°58'0 0.0
2018-Jun-19 22:00N 69°39' E 018°58'0 0.0
2018-Jun-19 21:30N 69°39' E 018°58'0 0.0
2018-Jun-19 21:00N 69°39' E 018°58'0 0.0
2018-Jun-19 20:30N 69°39' E 018°58'0 0.0
2018-Jun-19 20:00N 69°39' E 018°58'0 0.0
2018-Jun-19 19:30N 69°39' E 018°58'0 0.0
2018-Jun-19 19:00N 69°39' E 018°58'0 0.0
2018-Jun-19 18:30N 69°39' E 018°58'0 0.0
2018-Jun-19 18:00N 69°39' E 018°58'1 1.4
2018-Jun-19 17:30N 69°38' E 018°57'4 8.1
2018-Jun-19 17:00N 69°35' E 018°50'5 9.9
2018-Jun-19 16:30N 69°33' E 018°38'510.2
2018-Jun-19 15:59N 69°31' E 018°23'510.2
2018-Jun-19 15:29N 69°29' E 018°10'4 8.6
2018-Jun-19 14:59N 69°25' E 018°08'4 8.4
2018-Jun-19 14:30N 69°21' E 018°05'4 8.6
2018-Jun-19 14:00N 69°17' E 017°58'4 8.2
2018-Jun-19 13:30N 69°13' E 017°57'3 6.8
2018-Jun-19 13:00N 69°10' E 017°58'5 9.8
2018-Jun-19 12:30N 69°08' E 017°45'510.1
2018-Jun-19 12:01N 69°06' E 017°32'5 9.8
2018-Jun-19 11:30N 69°03' E 017°21'510.2
2018-Jun-19 11:00N 68°59' E 017°14'510.2
2018-Jun-19 10:30N 68°55' E 017°04'510.3
2018-Jun-19 09:59N 68°51' E 016°56'510.2
2018-Jun-19 09:30N 68°46' E 016°48'510.3
2018-Jun-19 09:00N 68°42' E 016°42'510.2
2018-Jun-19 08:30N 68°38' E 016°35'5 9.6
2018-Jun-19 08:00N 68°33' E 016°29'5 9.4
2018-Jun-19 07:30N 68°33' E 016°16'510.3
2018-Jun-19 07:00N 68°29' E 016°07'510.9
2018-Jun-19 06:30N 68°24' E 016°02'510.5
2018-Jun-19 06:00N 68°19' E 015°56'510.4
2018-Jun-19 05:30N 68°15' E 015°47'510.5
2018-Jun-19 05:00N 68°13' E 015°35'510.5
2018-Jun-19 04:30N 68°10' E 015°23'510.8
2018-Jun-19 04:00N 68°07' E 015°10'510.9
2018-Jun-19 03:30N 68°04' E 014°58'610.8
2018-Jun-19 02:59N 68°01' E 014°45'510.5
2018-Jun-19 02:29N 67°59' E 014°34'2 4.4
2018-Jun-19 02:00N 67°57' E 014°29'611.7
2018-Jun-19 01:30N 67°53' E 014°19'611.6
2018-Jun-19 01:00N 67°48' E 014°09'611.2
2018-Jun-19 00:30N 67°44' E 014°00'611.4
2018-Jun-19 00:00N 67°39' E 013°50'611.3
2018-Jun-18 23:30N 67°35' E 013°41'611.2
2018-Jun-18 23:00N 67°31' E 013°32'611.2
2018-Jun-18 22:30N 67°26' E 013°23'611.4
2018-Jun-18 21:59N 67°22' E 013°14'611.2
2018-Jun-18 21:30N 67°17' E 013°05'611.5
2018-Jun-18 21:00N 67°13' E 012°56'3510.7
2018-Jun-18 17:44N 66°44' E 012°06'210.7
2018-Jun-18 17:30N 66°41' E 012°03'510.8
2018-Jun-18 17:01N 66°37' E 011°57'611.3
2018-Jun-18 16:30N 66°31' E 011°51'611.7
2018-Jun-18 16:00N 66°26' E 011°46'611.9
2018-Jun-18 15:30N 66°20' E 011°41'5610.9
2018-Jun-18 10:22N 65°28' E 010°47'412.3
2018-Jun-18 10:00N 65°24' E 010°43'611.8
2018-Jun-18 09:30N 65°19' E 010°37'611.6
2018-Jun-18 09:00N 65°14' E 010°32'9211.0
2018-Jun-18 00:34N 63°59' E 008°24'111.7
2018-Jun-18 00:30N 63°59' E 008°22'611.8
2018-Jun-18 00:00N 63°54' E 008°14'611.8
2018-Jun-17 23:29N 63°50' E 008°05'611.5
2018-Jun-17 23:00N 63°46' E 007°56'611.2
2018-Jun-17 22:30N 63°42' E 007°47'610.9
2018-Jun-17 22:00N 63°38' E 007°39'511.1
2018-Jun-17 21:30N 63°34' E 007°30'611.2
2018-Jun-17 20:59N 63°29' E 007°22'511.1
2018-Jun-17 20:30N 63°25' E 007°14'611.1
2018-Jun-17 20:00N 63°21' E 007°06'511.0
2018-Jun-17 19:30N 63°17' E 006°58'611.0
2018-Jun-17 18:59N 63°13' E 006°50'611.0
2018-Jun-17 18:28N 63°08' E 006°42'510.9
2018-Jun-17 18:00N 63°04' E 006°34'510.8
2018-Jun-17 17:30N 63°00' E 006°26'510.8
2018-Jun-17 17:00N 62°56' E 006°19'510.6
2018-Jun-17 16:30N 62°52' E 006°11'610.9
2018-Jun-17 15:59N 62°48' E 006°03'510.8
2018-Jun-17 15:29N 62°44' E 005°55'510.8
2018-Jun-17 15:00N 62°40' E 005°48'510.8
2018-Jun-17 14:29N 62°36' E 005°40'510.8
2018-Jun-17 14:00N 62°32' E 005°32'510.8
2018-Jun-17 13:30N 62°28' E 005°25'510.9
2018-Jun-17 13:00N 62°23' E 005°17'510.7
2018-Jun-17 12:30N 62°19' E 005°10'510.8
2018-Jun-17 12:00N 62°15' E 005°02'511.0
2018-Jun-17 11:30N 62°10' E 004°56'611.0
2018-Jun-17 11:00N 62°06' E 004°51'510.9
2018-Jun-17 10:30N 62°01' E 004°46'611.3
2018-Jun-17 10:00N 61°56' E 004°41'611.0
2018-Jun-17 09:30N 61°51' E 004°36'611.4
2018-Jun-17 09:00N 61°45' E 004°30'611.7
2018-Jun-17 08:30N 61°40' E 004°25'611.4
2018-Jun-17 08:00N 61°35' E 004°24'2 4.3
2018-Jun-17 07:30N 61°32' E 004°24'510.6
2018-Jun-17 07:00N 61°27' E 004°23'511.0
2018-Jun-17 06:30N 61°22' E 004°22'611.0
2018-Jun-17 06:00N 61°16' E 004°21'511.0
2018-Jun-17 05:30N 61°11' E 004°20'611.2
2018-Jun-17 04:59N 61°05' E 004°19'511.0
2018-Jun-17 04:30N 60°60' E 004°18'510.6
2018-Jun-17 04:00N 60°54' E 004°19'510.6
2018-Jun-17 03:30N 60°49' E 004°21'510.9
2018-Jun-17 03:00N 60°44' E 004°23'510.8
2018-Jun-17 02:30N 60°38' E 004°25'510.9
2018-Jun-17 02:00N 60°33' E 004°27'611.0
2018-Jun-17 01:28N 60°27' E 004°30'510.9
2018-Jun-17 00:59N 60°22' E 004°32'511.3
2018-Jun-17 00:30N 60°17' E 004°34'611.4
2018-Jun-17 00:00N 60°11' E 004°36'511.2
2018-Jun-16 23:30N 60°06' E 004°38'611.2
2018-Jun-16 23:00N 60°00' E 004°41'611.0
2018-Jun-16 22:30N 59°55' E 004°42'511.0
2018-Jun-16 22:00N 59°49' E 004°44'511.0
2018-Jun-16 21:30N 59°44' E 004°47'611.4
2018-Jun-16 21:00N 59°38' E 004°49'611.0
2018-Jun-16 20:29N 59°33' E 004°49'511.0
2018-Jun-16 19:59N 59°27' E 004°46'1910.2
2018-Jun-16 18:08N 59°09' E 004°50'210.3
2018-Jun-16 18:00N 59°07' E 004°51'510.6
2018-Jun-16 17:30N 59°03' E 004°57'510.3
2018-Jun-16 16:59N 58°59' E 005°02'510.4
2018-Jun-16 16:30N 58°54' E 005°07'5 9.8
2018-Jun-16 16:00N 58°50' E 005°13'510.1
2018-Jun-16 15:30N 58°46' E 005°18'510.1
2018-Jun-16 15:00N 58°42' E 005°24'510.1
2018-Jun-16 14:30N 58°38' E 005°29'5 9.9
2018-Jun-16 14:00N 58°34' E 005°35'510.3
2018-Jun-16 13:30N 58°30' E 005°41'510.2
2018-Jun-16 13:00N 58°26' E 005°47'510.0
2018-Jun-16 12:30N 58°22' E 005°54'510.2
2018-Jun-16 12:00N 58°19' E 006°02'510.3
2018-Jun-16 11:30N 58°15' E 006°09'510.1
2018-Jun-16 11:01N 58°12' E 006°15'510.6
2018-Jun-16 10:30N 58°08' E 006°22'611.2
2018-Jun-16 09:58N 58°04' E 006°31'511.3
2018-Jun-16 09:30N 58°02' E 006°40'511.0
2018-Jun-16 09:00N 58°00' E 006°50'510.6
2018-Jun-16 08:30N 57°58' E 006°59'510.5
2018-Jun-16 08:00N 57°57' E 007°09'610.6
2018-Jun-16 07:29N 57°56' E 007°19'510.8
2018-Jun-16 07:00N 57°56' E 007°29'510.3
2018-Jun-16 06:30N 57°55' E 007°38'5 9.6
2018-Jun-16 06:00N 57°55' E 007°47'5 9.8
2018-Jun-16 05:29N 57°55' E 007°57'5 9.6
2018-Jun-16 04:59N 57°54' E 008°06'5 9.7
2018-Jun-16 04:30N 57°54' E 008°15'5 9.1
2018-Jun-16 04:00N 57°53' E 008°23'93 8.1
2018-Jun-15 16:29N 57°34' E 011°14'4 8.7
2018-Jun-15 16:00N 57°31' E 011°20'4 8.8
2018-Jun-15 15:30N 57°28' E 011°25'4 8.8
2018-Jun-15 14:59N 57°24' E 011°29'86 9.1
2018-Jun-15 05:26N 56°06' E 012°35'4 8.6
2018-Jun-15 05:00N 56°03' E 012°40'5 9.1
2018-Jun-15 04:30N 55°59' E 012°42'5 9.2
2018-Jun-15 04:00N 55°54' E 012°45'5 9.5
2018-Jun-15 03:30N 55°50' E 012°43'5 9.7
2018-Jun-15 03:00N 55°45' E 012°42'5 9.7
2018-Jun-15 02:30N 55°40' E 012°42'7 9.1
2018-Jun-15 01:45N 55°33' E 012°42'13 9.5
2018-Jun-15 00:20N 55°20' E 012°41'43 9.2
2018-Jun-14 19:37N 55°05' E 013°53'2 9.9
2018-Jun-14 19:24N 55°05' E 013°57'1610.1
2018-Jun-14 17:48N 55°00' E 014°24'3 9.9
2018-Jun-14 17:29N 54°59' E 014°29'5 9.8
2018-Jun-14 17:00N 54°58' E 014°37'5 9.8
2018-Jun-14 16:31N 54°56' E 014°45'6 9.8
2018-Jun-14 15:56N 54°55' E 014°54'5 9.5
2018-Jun-14 15:26N 54°54' E 015°02'108 9.2
2018-Jun-14 03:39N 54°52' E 018°10'4 9.2
2018-Jun-14 03:13N 54°51' E 018°17'2 9.3
2018-Jun-14 03:00N 54°51' E 018°20'5 9.1
2018-Jun-14 02:30N 54°49' E 018°28'5 9.1
2018-Jun-14 02:00N 54°47' E 018°35'5 9.0
2018-Jun-14 01:30N 54°45' E 018°42'5 9.4
2018-Jun-14 01:00N 54°43' E 018°49'5 9.6
2018-Jun-14 00:31N 54°41' E 018°57'5 9.3
2018-Jun-14 00:00N 54°36' E 018°55'5 9.8
2018-Jun-13 23:30N 54°32' E 018°50'5 9.7
2018-Jun-13 23:00N 54°29' E 018°44'5 9.3
2018-Jun-13 22:30N 54°25' E 018°39'2 3.3
2018-Jun-13 21:59N 54°24' E 018°40'0 0.0
2018-Jun-13 21:29N 54°24' E 018°40'0 0.0
2018-Jun-13 20:59N 54°24' E 018°40'0 0.0
2018-Jun-13 20:29N 54°24' E 018°40'0 0.0
2018-Jun-13 19:59N 54°24' E 018°40'0 0.0
2018-Jun-13 19:29N 54°24' E 018°40'0 0.0
2018-Jun-13 18:59N 54°24' E 018°40'0 0.0
2018-Jun-13 18:29N 54°24' E 018°40'0 0.0
2018-Jun-13 17:59N 54°24' E 018°40'0 0.0
2018-Jun-13 17:29N 54°24' E 018°40'0 0.0
2018-Jun-13 16:59N 54°24' E 018°40'0 0.0
2018-Jun-13 16:29N 54°24' E 018°40'0 0.0
2018-Jun-13 15:59N 54°24' E 018°40'0 0.0
2018-Jun-13 15:29N 54°24' E 018°40'0 0.0
2018-Jun-13 14:59N 54°24' E 018°40'0 0.0
2018-Jun-13 14:29N 54°24' E 018°40'0 0.0
2018-Jun-13 13:56N 54°24' E 018°40'0 0.0
2018-Jun-13 13:29N 54°24' E 018°40'0 0.0
2018-Jun-13 12:59N 54°24' E 018°40'0 0.0
2018-Jun-13 12:26N 54°24' E 018°40'0 0.0
2018-Jun-13 11:59N 54°24' E 018°40'0 0.0
2018-Jun-13 11:29N 54°24' E 018°40'0 0.0
2018-Jun-13 10:59N 54°24' E 018°40'0 0.0
2018-Jun-13 10:29N 54°24' E 018°40'0 0.0
2018-Jun-13 09:59N 54°24' E 018°40'0 0.0
2018-Jun-13 09:29N 54°24' E 018°40'0 0.0
2018-Jun-13 08:59N 54°24' E 018°40'0 0.0
2018-Jun-13 08:29N 54°24' E 018°40'0 0.0
2018-Jun-13 07:59N 54°24' E 018°40'0 0.0
2018-Jun-13 07:29N 54°24' E 018°40'0 0.0
2018-Jun-13 06:59N 54°24' E 018°40'0 0.0
2018-Jun-13 06:26N 54°24' E 018°40'0 0.0
2018-Jun-13 05:59N 54°24' E 018°40'0 0.0
2018-Jun-13 05:29N 54°24' E 018°40'0 0.0
2018-Jun-13 04:53N 54°24' E 018°40'0 0.0
2018-Jun-13 04:29N 54°24' E 018°40'0 0.0
2018-Jun-13 03:59N 54°24' E 018°40'0 0.0
2018-Jun-13 03:29N 54°24' E 018°40'0 0.0
2018-Jun-13 02:59N 54°24' E 018°40'0 0.0
2018-Jun-13 02:29N 54°24' E 018°40'0 0.0
2018-Jun-13 01:50N 54°24' E 018°40'0 0.0
2018-Jun-13 01:29N 54°24' E 018°40'0 0.0
2018-Jun-13 00:59N 54°24' E 018°40'0 0.0
2018-Jun-12 23:56N 54°24' E 018°40'0 0.0
2018-Jun-12 23:28N 54°24' E 018°40'0 0.0
2018-Jun-12 22:59N 54°24' E 018°40'0 0.0
2018-Jun-12 22:29N 54°24' E 018°40'0 0.0
2018-Jun-12 21:53N 54°24' E 018°40'0 0.0
2018-Jun-12 21:28N 54°24' E 018°40'0 0.0
2018-Jun-12 20:59N 54°24' E 018°40'0 0.0
2018-Jun-12 20:17N 54°24' E 018°40'0 0.0
2018-Jun-12 19:56N 54°24' E 018°40'0 0.0
2018-Jun-12 19:26N 54°24' E 018°40'0 0.0
2018-Jun-12 18:59N 54°24' E 018°40'0 0.0
2018-Jun-12 18:20N 54°24' E 018°40'0 0.0
2018-Jun-12 17:53N 54°24' E 018°40'0 0.0
2018-Jun-12 17:20N 54°24' E 018°40'0 0.0
2018-Jun-12 16:56N 54°24' E 018°40'0 0.0
2018-Jun-12 16:23N 54°24' E 018°40'0 0.0
2018-Jun-12 15:59N 54°24' E 018°40'0 0.0
2018-Jun-12 15:29N 54°24' E 018°40'0 0.0
2018-Jun-12 14:56N 54°24' E 018°40'0 0.0
2018-Jun-12 14:26N 54°24' E 018°40'0 0.0
2018-Jun-12 13:59N 54°24' E 018°40'0 0.0
2018-Jun-12 13:29N 54°24' E 018°40'0 0.0
2018-Jun-12 12:53N 54°24' E 018°40'0 0.0
2018-Jun-12 12:28N 54°24' E 018°40'0 0.0
2018-Jun-12 11:59N 54°24' E 018°40'0 0.0
2018-Jun-12 11:29N 54°24' E 018°40'0 0.0
2018-Jun-12 10:59N 54°24' E 018°40'0 0.0
2018-Jun-12 10:26N 54°24' E 018°40'0 0.0
2018-Jun-12 09:59N 54°24' E 018°40'  
Track history (hours):
 
Tides and Currents Weather Stations Pressure Air Temp Water Temp Dewpoint Dewpoint Depression Visibility Wind Speed Wind Dir Waves Ship Positions

Oceanographic research ship Oceania (Poland)

Detailed information on ship capabilities available from University of Delaware's Ocean Information Center and ARCUS's ALIAS (Arctic Logistics Information and Support) project.

Last reported at 2018-Jun-22 09:32 UTC. Time now 2018-Jun-23 04:45 UTC.
Position N 70°41' E 019°58'.

Length 49 m; beam 9 m.

Type: Sailing vessel. MMSI: 261000142.

Date/timePositionNaut miles runAvg speedWind from/ knotsBaromVisibWave heightAir tempDewpointWater temp
2018-Jun-22 09:32N 70°41' E 019°58'0 9.6
2018-Jun-22 09:30N 70°41' E 019°58'1 2.2
2018-Jun-22 09:01N 70°40' E 019°58'3 5.5
2018-Jun-22 08:30N 70°37' E 019°57'5 9.5
2018-Jun-22 08:01N 70°33' E 019°60'3 5.3
2018-Jun-22 07:30N 70°30' E 020°01'0 0.4
2018-Jun-22 07:00N 70°30' E 020°00'0 0.9
2018-Jun-22 06:30N 70°30' E 020°02'0 0.6
2018-Jun-22 06:00N 70°30' E 020°01'0 0.4
2018-Jun-22 05:30N 70°30' E 020°01'2 4.9
2018-Jun-22 05:00N 70°29' E 020°08'0 0.5
2018-Jun-22 04:30N 70°29' E 020°07'0 0.6
2018-Jun-22 04:00N 70°29' E 020°06'3 5.8
2018-Jun-22 03:30N 70°27' E 020°02'4 8.7
2018-Jun-22 03:00N 70°22' E 020°03'4 8.5
2018-Jun-22 02:30N 70°18' E 020°05'4 9.0
2018-Jun-22 02:00N 70°14' E 020°07'5 9.5
2018-Jun-22 01:30N 70°09' E 020°08'5 9.4
2018-Jun-22 01:00N 70°04' E 020°08'5 9.7
2018-Jun-22 00:29N 70°00' E 020°01'5 9.9
2018-Jun-22 00:00N 69°56' E 019°55'510.0
2018-Jun-21 23:30N 69°51' E 019°48'510.0
2018-Jun-21 23:00N 69°49' E 019°34'510.4
2018-Jun-21 22:30N 69°48' E 019°20'510.2
2018-Jun-21 22:00N 69°46' E 019°07'5 9.5
2018-Jun-21 21:30N 69°41' E 019°02'3 5.7
2018-Jun-21 21:00N 69°39' E 018°58'0 0.0
2018-Jun-21 20:30N 69°39' E 018°58'0 0.0
2018-Jun-21 20:00N 69°39' E 018°58'0 0.0
2018-Jun-21 19:30N 69°39' E 018°58'0 0.0
2018-Jun-21 19:00N 69°39' E 018°58'0 0.0
2018-Jun-21 18:30N 69°39' E 018°58'0 0.0
2018-Jun-21 18:00N 69°39' E 018°58'0 0.0
2018-Jun-21 17:30N 69°39' E 018°58'0 0.0
2018-Jun-21 17:00N 69°39' E 018°58'0 0.0
2018-Jun-21 16:30N 69°39' E 018°58'0 0.0
2018-Jun-21 16:00N 69°39' E 018°58'0 0.0
2018-Jun-21 15:30N 69°39' E 018°58'0 0.0
2018-Jun-21 15:00N 69°39' E 018°58'0 0.0
2018-Jun-21 14:30N 69°39' E 018°58'0 0.0
2018-Jun-21 14:00N 69°39' E 018°58'0 0.0
2018-Jun-21 13:30N 69°39' E 018°58'0 0.0
2018-Jun-21 13:00N 69°39' E 018°58'0 0.0
2018-Jun-21 12:30N 69°39' E 018°58'0 0.0
2018-Jun-21 12:00N 69°39' E 018°58'0 0.0
2018-Jun-21 11:30N 69°39' E 018°58'0 0.0
2018-Jun-21 11:00N 69°39' E 018°58'0 0.0
2018-Jun-21 10:30N 69°39' E 018°58'0 0.0
2018-Jun-21 10:00N 69°39' E 018°58'0 0.0
2018-Jun-21 09:30N 69°39' E 018°58'0 0.0
2018-Jun-21 09:00N 69°39' E 018°58'0 0.0
2018-Jun-21 08:30N 69°39' E 018°58'0 0.0
2018-Jun-21 08:00N 69°39' E 018°58'0 0.0
2018-Jun-21 07:30N 69°39' E 018°58'0 0.0
2018-Jun-21 07:00N 69°39' E 018°58'0 0.0
2018-Jun-21 06:30N 69°39' E 018°58'0 0.0
2018-Jun-21 06:00N 69°39' E 018°58'0 0.0
2018-Jun-21 05:30N 69°39' E 018°58'0 0.0
2018-Jun-21 05:00N 69°39' E 018°58'0 0.0
2018-Jun-21 04:30N 69°39' E 018°58'0 0.0
2018-Jun-21 04:00N 69°39' E 018°58'0 0.0
2018-Jun-21 03:30N 69°39' E 018°58'0 0.0
2018-Jun-21 03:00N 69°39' E 018°58'0 0.0
2018-Jun-21 02:27N 69°39' E 018°58'0 0.0
2018-Jun-21 02:00N 69°39' E 018°58'0 0.0
2018-Jun-21 01:30N 69°39' E 018°58'0 0.0
2018-Jun-21 01:00N 69°39' E 018°58'0 0.0
2018-Jun-21 00:30N 69°39' E 018°58'0 0.0
2018-Jun-21 00:00N 69°39' E 018°58'0 0.0
2018-Jun-20 23:30N 69°39' E 018°58'0 0.0
2018-Jun-20 23:00N 69°39' E 018°58'0 0.0
2018-Jun-20 22:30N 69°39' E 018°58'0 0.0
2018-Jun-20 22:00N 69°39' E 018°58'0 0.0
2018-Jun-20 21:30N 69°39' E 018°58'0 0.0
2018-Jun-20 21:00N 69°39' E 018°58'0 0.0
2018-Jun-20 20:30N 69°39' E 018°58'0 0.0
2018-Jun-20 20:00N 69°39' E 018°58'0 0.0
2018-Jun-20 19:30N 69°39' E 018°58'0 0.0
2018-Jun-20 19:00N 69°39' E 018°58'0 0.0
2018-Jun-20 18:30N 69°39' E 018°58'0 0.0
2018-Jun-20 18:00N 69°39' E 018°58'0 0.0
2018-Jun-20 17:30N 69°39' E 018°58'0 0.0
2018-Jun-20 17:00N 69°39' E 018°58'0 0.0
2018-Jun-20 16:30N 69°39' E 018°58'0 0.0
2018-Jun-20 16:00N 69°39' E 018°58'0 0.0
2018-Jun-20 15:30N 69°39' E 018°58'0 0.0
2018-Jun-20 15:00N 69°39' E 018°58'0 0.0
2018-Jun-20 14:30N 69°39' E 018°58'0 0.0
2018-Jun-20 14:00N 69°39' E 018°58'0 0.0
2018-Jun-20 13:30N 69°39' E 018°58'0 0.0
2018-Jun-20 13:00N 69°39' E 018°58'0 0.0
2018-Jun-20 12:30N 69°39' E 018°58'0 0.0
2018-Jun-20 12:00N 69°39' E 018°58'0 0.0
2018-Jun-20 11:30N 69°39' E 018°58'0 0.0
2018-Jun-20 11:00N 69°39' E 018°58'0 0.0
2018-Jun-20 10:30N 69°39' E 018°58'0 0.0
2018-Jun-20 10:00N 69°39' E 018°58'0 0.0
2018-Jun-20 09:30N 69°39' E 018°58'0 0.0
2018-Jun-20 09:00N 69°39' E 018°58'0 0.0
2018-Jun-20 08:30N 69°39' E 018°58'0 0.0
2018-Jun-20 08:00N 69°39' E 018°58'0 0.0
2018-Jun-20 07:30N 69°39' E 018°58'0 0.0
2018-Jun-20 07:00N 69°39' E 018°58'0 0.0
2018-Jun-20 06:30N 69°39' E 018°58'0 0.0
2018-Jun-20 06:00N 69°39' E 018°58'0 0.0
2018-Jun-20 05:30N 69°39' E 018°58'0 0.0
2018-Jun-20 05:00N 69°39' E 018°58'0 0.0
2018-Jun-20 04:30N 69°39' E 018°58'0 0.0
2018-Jun-20 04:00N 69°39' E 018°58'0 0.0
2018-Jun-20 03:30N 69°39' E 018°58'0 0.0
2018-Jun-20 03:00N 69°39' E 018°58'0 0.0
2018-Jun-20 02:30N 69°39' E 018°58'0 0.0
2018-Jun-20 02:00N 69°39' E 018°58'0 0.0
2018-Jun-20 01:30N 69°39' E 018°58'0 0.0
2018-Jun-20 01:00N 69°39' E 018°58'0 0.0
2018-Jun-20 00:30N 69°39' E 018°58'0 0.0
2018-Jun-20 00:00N 69°39' E 018°58'0 0.0
2018-Jun-19 23:30N 69°39' E 018°58'0 0.0
2018-Jun-19 23:00N 69°39' E 018°58'0 0.0
2018-Jun-19 22:30N 69°39' E 018°58'0 0.0
2018-Jun-19 22:00N 69°39' E 018°58'0 0.0
2018-Jun-19 21:30N 69°39' E 018°58'0 0.0
2018-Jun-19 21:00N 69°39' E 018°58'0 0.0
2018-Jun-19 20:30N 69°39' E 018°58'0 0.0
2018-Jun-19 20:00N 69°39' E 018°58'0 0.0
2018-Jun-19 19:30N 69°39' E 018°58'0 0.0
2018-Jun-19 19:00N 69°39' E 018°58'0 0.0
2018-Jun-19 18:30N 69°39' E 018°58'0 0.0
2018-Jun-19 18:00N 69°39' E 018°58'1 1.4
2018-Jun-19 17:30N 69°38' E 018°57'4 8.1
2018-Jun-19 17:00N 69°35' E 018°50'5 9.9
2018-Jun-19 16:30N 69°33' E 018°38'510.2
2018-Jun-19 15:59N 69°31' E 018°23'510.2
2018-Jun-19 15:29N 69°29' E 018°10'4 8.6
2018-Jun-19 14:59N 69°25' E 018°08'4 8.4
2018-Jun-19 14:30N 69°21' E 018°05'4 8.6
2018-Jun-19 14:00N 69°17' E 017°58'4 8.2
2018-Jun-19 13:30N 69°13' E 017°57'3 6.8
2018-Jun-19 13:00N 69°10' E 017°58'5 9.8
2018-Jun-19 12:30N 69°08' E 017°45'510.1
2018-Jun-19 12:01N 69°06' E 017°32'5 9.8
2018-Jun-19 11:30N 69°03' E 017°21'510.2
2018-Jun-19 11:00N 68°59' E 017°14'510.2
2018-Jun-19 10:30N 68°55' E 017°04'510.3
2018-Jun-19 09:59N 68°51' E 016°56'510.2
2018-Jun-19 09:30N 68°46' E 016°48'510.3
2018-Jun-19 09:00N 68°42' E 016°42'510.2
2018-Jun-19 08:30N 68°38' E 016°35'5 9.6
2018-Jun-19 08:00N 68°33' E 016°29'5 9.4
2018-Jun-19 07:30N 68°33' E 016°16'510.3
2018-Jun-19 07:00N 68°29' E 016°07'510.9
2018-Jun-19 06:30N 68°24' E 016°02'510.5
2018-Jun-19 06:00N 68°19' E 015°56'510.4
2018-Jun-19 05:30N 68°15' E 015°47'510.5
2018-Jun-19 05:00N 68°13' E 015°35'510.5
2018-Jun-19 04:30N 68°10' E 015°23'510.8
2018-Jun-19 04:00N 68°07' E 015°10'510.9
2018-Jun-19 03:30N 68°04' E 014°58'610.8
2018-Jun-19 02:59N 68°01' E 014°45'510.5
2018-Jun-19 02:29N 67°59' E 014°34'2 4.4
2018-Jun-19 02:00N 67°57' E 014°29'611.7
2018-Jun-19 01:30N 67°53' E 014°19'611.6
2018-Jun-19 01:00N 67°48' E 014°09'611.2
2018-Jun-19 00:30N 67°44' E 014°00'611.4
2018-Jun-19 00:00N 67°39' E 013°50'611.3
2018-Jun-18 23:30N 67°35' E 013°41'611.2
2018-Jun-18 23:00N 67°31' E 013°32'611.2
2018-Jun-18 22:30N 67°26' E 013°23'611.4
2018-Jun-18 21:59N 67°22' E 013°14'611.2
2018-Jun-18 21:30N 67°17' E 013°05'611.5
2018-Jun-18 21:00N 67°13' E 012°56'3510.7
2018-Jun-18 17:44N 66°44' E 012°06'210.7
2018-Jun-18 17:30N 66°41' E 012°03'510.8
2018-Jun-18 17:01N 66°37' E 011°57'611.3
2018-Jun-18 16:30N 66°31' E 011°51'611.7
2018-Jun-18 16:00N 66°26' E 011°46'611.9
2018-Jun-18 15:30N 66°20' E 011°41'5610.9
2018-Jun-18 10:22N 65°28' E 010°47'412.3
2018-Jun-18 10:00N 65°24' E 010°43'611.8
2018-Jun-18 09:30N 65°19' E 010°37'611.6
2018-Jun-18 09:00N 65°14' E 010°32'9211.0
2018-Jun-18 00:34N 63°59' E 008°24'111.7
2018-Jun-18 00:30N 63°59' E 008°22'611.8
2018-Jun-18 00:00N 63°54' E 008°14'611.8
2018-Jun-17 23:29N 63°50' E 008°05'611.5
2018-Jun-17 23:00N 63°46' E 007°56'611.2
2018-Jun-17 22:30N 63°42' E 007°47'610.9
2018-Jun-17 22:00N 63°38' E 007°39'511.1
2018-Jun-17 21:30N 63°34' E 007°30'611.2
2018-Jun-17 20:59N 63°29' E 007°22'511.1
2018-Jun-17 20:30N 63°25' E 007°14'611.1
2018-Jun-17 20:00N 63°21' E 007°06'511.0
2018-Jun-17 19:30N 63°17' E 006°58'611.0
2018-Jun-17 18:59N 63°13' E 006°50'611.0
2018-Jun-17 18:28N 63°08' E 006°42'510.9
2018-Jun-17 18:00N 63°04' E 006°34'510.8
2018-Jun-17 17:30N 63°00' E 006°26'510.8
2018-Jun-17 17:00N 62°56' E 006°19'510.6
2018-Jun-17 16:30N 62°52' E 006°11'610.9
2018-Jun-17 15:59N 62°48' E 006°03'510.8
2018-Jun-17 15:29N 62°44' E 005°55'510.8
2018-Jun-17 15:00N 62°40' E 005°48'510.8
2018-Jun-17 14:29N 62°36' E 005°40'510.8
2018-Jun-17 14:00N 62°32' E 005°32'510.8
2018-Jun-17 13:30N 62°28' E 005°25'510.9
2018-Jun-17 13:00N 62°23' E 005°17'510.7
2018-Jun-17 12:30N 62°19' E 005°10'510.8
2018-Jun-17 12:00N 62°15' E 005°02'511.0
2018-Jun-17 11:30N 62°10' E 004°56'611.0
2018-Jun-17 11:00N 62°06' E 004°51'510.9
2018-Jun-17 10:30N 62°01' E 004°46'611.3
2018-Jun-17 10:00N 61°56' E 004°41'611.0
2018-Jun-17 09:30N 61°51' E 004°36'611.4
2018-Jun-17 09:00N 61°45' E 004°30'611.7
2018-Jun-17 08:30N 61°40' E 004°25'611.4
2018-Jun-17 08:00N 61°35' E 004°24'2 4.3
2018-Jun-17 07:30N 61°32' E 004°24'510.6
2018-Jun-17 07:00N 61°27' E 004°23'511.0
2018-Jun-17 06:30N 61°22' E 004°22'611.0
2018-Jun-17 06:00N 61°16' E 004°21'511.0
2018-Jun-17 05:30N 61°11' E 004°20'611.2
2018-Jun-17 04:59N 61°05' E 004°19'511.0
2018-Jun-17 04:30N 60°60' E 004°18'510.6
2018-Jun-17 04:00N 60°54' E 004°19'510.6
2018-Jun-17 03:30N 60°49' E 004°21'510.9
2018-Jun-17 03:00N 60°44' E 004°23'510.8
2018-Jun-17 02:30N 60°38' E 004°25'510.9
2018-Jun-17 02:00N 60°33' E 004°27'611.0
2018-Jun-17 01:28N 60°27' E 004°30'510.9
2018-Jun-17 00:59N 60°22' E 004°32'511.3
2018-Jun-17 00:30N 60°17' E 004°34'611.4
2018-Jun-17 00:00N 60°11' E 004°36'511.2
2018-Jun-16 23:30N 60°06' E 004°38'611.2
2018-Jun-16 23:00N 60°00' E 004°41'611.0
2018-Jun-16 22:30N 59°55' E 004°42'511.0
2018-Jun-16 22:00N 59°49' E 004°44'511.0
2018-Jun-16 21:30N 59°44' E 004°47'611.4
2018-Jun-16 21:00N 59°38' E 004°49'611.0
2018-Jun-16 20:29N 59°33' E 004°49'511.0
2018-Jun-16 19:59N 59°27' E 004°46'1910.2
2018-Jun-16 18:08N 59°09' E 004°50'210.3
2018-Jun-16 18:00N 59°07' E 004°51'510.6
2018-Jun-16 17:30N 59°03' E 004°57'510.3
2018-Jun-16 16:59N 58°59' E 005°02'510.4
2018-Jun-16 16:30N 58°54' E 005°07'5 9.8
2018-Jun-16 16:00N 58°50' E 005°13'510.1
2018-Jun-16 15:30N 58°46' E 005°18'510.1
2018-Jun-16 15:00N 58°42' E 005°24'510.1
2018-Jun-16 14:30N 58°38' E 005°29'5 9.9
2018-Jun-16 14:00N 58°34' E 005°35'510.3
2018-Jun-16 13:30N 58°30' E 005°41'510.2
2018-Jun-16 13:00N 58°26' E 005°47'510.0
2018-Jun-16 12:30N 58°22' E 005°54'510.2
2018-Jun-16 12:00N 58°19' E 006°02'510.3
2018-Jun-16 11:30N 58°15' E 006°09'510.1
2018-Jun-16 11:01N 58°12' E 006°15'510.6
2018-Jun-16 10:30N 58°08' E 006°22'611.2
2018-Jun-16 09:58N 58°04' E 006°31'511.3
2018-Jun-16 09:30N 58°02' E 006°40'511.0
2018-Jun-16 09:00N 58°00' E 006°50'510.6
2018-Jun-16 08:30N 57°58' E 006°59'510.5
2018-Jun-16 08:00N 57°57' E 007°09'610.6
2018-Jun-16 07:29N 57°56' E 007°19'510.8
2018-Jun-16 07:00N 57°56' E 007°29'510.3
2018-Jun-16 06:30N 57°55' E 007°38'5 9.6
2018-Jun-16 06:00N 57°55' E 007°47'5 9.8
2018-Jun-16 05:29N 57°55' E 007°57'5 9.6
2018-Jun-16 04:59N 57°54' E 008°06'5 9.7
2018-Jun-16 04:30N 57°54' E 008°15'5 9.1
2018-Jun-16 04:00N 57°53' E 008°23'93 8.1
2018-Jun-15 16:29N 57°34' E 011°14'4 8.7
2018-Jun-15 16:00N 57°31' E 011°20'4 8.8
2018-Jun-15 15:30N 57°28' E 011°25'4 8.8
2018-Jun-15 14:59N 57°24' E 011°29'86 9.1
2018-Jun-15 05:26N 56°06' E 012°35'4 8.6
2018-Jun-15 05:00N 56°03' E 012°40'5 9.1
2018-Jun-15 04:30N 55°59' E 012°42'5 9.2
2018-Jun-15 04:00N 55°54' E 012°45'5 9.5
2018-Jun-15 03:30N 55°50' E 012°43'5 9.7
2018-Jun-15 03:00N 55°45' E 012°42'5 9.7
2018-Jun-15 02:30N 55°40' E 012°42'7 9.1
2018-Jun-15 01:45N 55°33' E 012°42'13 9.5
2018-Jun-15 00:20N 55°20' E 012°41'43 9.2
2018-Jun-14 19:37N 55°05' E 013°53'2 9.9
2018-Jun-14 19:24N 55°05' E 013°57'1610.1
2018-Jun-14 17:48N 55°00' E 014°24'3 9.9
2018-Jun-14 17:29N 54°59' E 014°29'5 9.8
2018-Jun-14 17:00N 54°58' E 014°37'5 9.8
2018-Jun-14 16:31N 54°56' E 014°45'6 9.8
2018-Jun-14 15:56N 54°55' E 014°54'5 9.5
2018-Jun-14 15:26N 54°54' E 015°02'108 9.2
2018-Jun-14 03:39N 54°52' E 018°10'4 9.2
2018-Jun-14 03:13N 54°51' E 018°17'2 9.3
2018-Jun-14 03:00N 54°51' E 018°20'5 9.1
2018-Jun-14 02:30N 54°49' E 018°28'5 9.1
2018-Jun-14 02:00N 54°47' E 018°35'5 9.0
2018-Jun-14 01:30N 54°45' E 018°42'5 9.4
2018-Jun-14 01:00N 54°43' E 018°49'5 9.6
2018-Jun-14 00:31N 54°41' E 018°57'5 9.3
2018-Jun-14 00:00N 54°36' E 018°55'5 9.8
2018-Jun-13 23:30N 54°32' E 018°50'5 9.7
2018-Jun-13 23:00N 54°29' E 018°44'5 9.3
2018-Jun-13 22:30N 54°25' E 018°39'2 3.3
2018-Jun-13 21:59N 54°24' E 018°40'0 0.0
2018-Jun-13 21:29N 54°24' E 018°40'0 0.0
2018-Jun-13 20:59N 54°24' E 018°40'0 0.0
2018-Jun-13 20:29N 54°24' E 018°40'0 0.0
2018-Jun-13 19:59N 54°24' E 018°40'0 0.0
2018-Jun-13 19:29N 54°24' E 018°40'0 0.0
2018-Jun-13 18:59N 54°24' E 018°40'0 0.0
2018-Jun-13 18:29N 54°24' E 018°40'0 0.0
2018-Jun-13 17:59N 54°24' E 018°40'0 0.0
2018-Jun-13 17:29N 54°24' E 018°40'0 0.0
2018-Jun-13 16:59N 54°24' E 018°40'0 0.0
2018-Jun-13 16:29N 54°24' E 018°40'0 0.0
2018-Jun-13 15:59N 54°24' E 018°40'0 0.0
2018-Jun-13 15:29N 54°24' E 018°40'0 0.0
2018-Jun-13 14:59N 54°24' E 018°40'0 0.0
2018-Jun-13 14:29N 54°24' E 018°40'0 0.0
2018-Jun-13 13:56N 54°24' E 018°40'0 0.0
2018-Jun-13 13:29N 54°24' E 018°40'0 0.0
2018-Jun-13 12:59N 54°24' E 018°40'0 0.0
2018-Jun-13 12:26N 54°24' E 018°40'0 0.0
2018-Jun-13 11:59N 54°24' E 018°40'0 0.0
2018-Jun-13 11:29N 54°24' E 018°40'0 0.0
2018-Jun-13 10:59N 54°24' E 018°40'0 0.0
2018-Jun-13 10:29N 54°24' E 018°40'0 0.0
2018-Jun-13 09:59N 54°24' E 018°40'0 0.0
2018-Jun-13 09:29N 54°24' E 018°40'0 0.0
2018-Jun-13 08:59N 54°24' E 018°40'0 0.0
2018-Jun-13 08:29N 54°24' E 018°40'0 0.0
2018-Jun-13 07:59N 54°24' E 018°40'0 0.0
2018-Jun-13 07:29N 54°24' E 018°40'0 0.0
2018-Jun-13 06:59N 54°24' E 018°40'0 0.0
2018-Jun-13 06:26N 54°24' E 018°40'0 0.0
2018-Jun-13 05:59N 54°24' E 018°40'0 0.0
2018-Jun-13 05:29N 54°24' E 018°40'0 0.0
2018-Jun-13 04:53N 54°24' E 018°40'0 0.0
2018-Jun-13 04:29N 54°24' E 018°40'0 0.0
2018-Jun-13 03:59N 54°24' E 018°40'0 0.0
2018-Jun-13 03:29N 54°24' E 018°40'0 0.0
2018-Jun-13 02:59N 54°24' E 018°40'0 0.0
2018-Jun-13 02:29N 54°24' E 018°40'0 0.0
2018-Jun-13 01:50N 54°24' E 018°40'0 0.0
2018-Jun-13 01:29N 54°24' E 018°40'0 0.0
2018-Jun-13 00:59N 54°24' E 018°40'0 0.0
2018-Jun-12 23:56N 54°24' E 018°40'0 0.0
2018-Jun-12 23:28N 54°24' E 018°40'0 0.0
2018-Jun-12 22:59N 54°24' E 018°40'0 0.0
2018-Jun-12 22:29N 54°24' E 018°40'0 0.0
2018-Jun-12 21:53N 54°24' E 018°40'0 0.0
2018-Jun-12 21:28N 54°24' E 018°40'0 0.0
2018-Jun-12 20:59N 54°24' E 018°40'0 0.0
2018-Jun-12 20:17N 54°24' E 018°40'0 0.0
2018-Jun-12 19:56N 54°24' E 018°40'0 0.0
2018-Jun-12 19:26N 54°24' E 018°40'0 0.0
2018-Jun-12 18:59N 54°24' E 018°40'0 0.0
2018-Jun-12 18:20N 54°24' E 018°40'0 0.0
2018-Jun-12 17:53N 54°24' E 018°40'0 0.0
2018-Jun-12 17:20N 54°24' E 018°40'0 0.0
2018-Jun-12 16:56N 54°24' E 018°40'0 0.0
2018-Jun-12 16:23N 54°24' E 018°40'0 0.0
2018-Jun-12 15:59N 54°24' E 018°40'0 0.0
2018-Jun-12 15:29N 54°24' E 018°40'0 0.0
2018-Jun-12 14:56N 54°24' E 018°40'0 0.0
2018-Jun-12 14:26N 54°24' E 018°40'0 0.0
2018-Jun-12 13:59N 54°24' E 018°40'0 0.0
2018-Jun-12 13:29N 54°24' E 018°40'0 0.0
2018-Jun-12 12:53N 54°24' E 018°40'0 0.0
2018-Jun-12 12:28N 54°24' E 018°40'0 0.0
2018-Jun-12 11:59N 54°24' E 018°40'0 0.0
2018-Jun-12 11:29N 54°24' E 018°40'0 0.0
2018-Jun-12 10:59N 54°24' E 018°40'0 0.0
2018-Jun-12 10:26N 54°24' E 018°40'0 0.0
2018-Jun-12 09:59N 54°24' E 018°40'  

Dump ship's entire track history